sensor_id;sensor_type;location;lat;lon;timestamp;P1;durP1;ratioP1;P2;durP2;ratioP2
17173;SDS011;8702;48.130;-1.696;2023-02-13T00:00:21;12.70;;;11.37;;
17173;SDS011;8702;48.130;-1.696;2023-02-13T00:02:49;11.67;;;10.53;;
17173;SDS011;8702;48.130;-1.696;2023-02-13T00:05:16;12.73;;;11.50;;
17173;SDS011;8702;48.130;-1.696;2023-02-13T00:07:44;12.87;;;11.57;;
17173;SDS011;8702;48.130;-1.696;2023-02-13T00:10:12;12.23;;;11.00;;
17173;SDS011;8702;48.130;-1.696;2023-02-13T00:12:39;12.77;;;11.47;;
17173;SDS011;8702;48.130;-1.696;2023-02-13T00:15:06;14.07;;;10.80;;
17173;SDS011;8702;48.130;-1.696;2023-02-13T00:17:34;11.90;;;10.70;;
17173;SDS011;8702;48.130;-1.696;2023-02-13T00:20:01;12.23;;;10.90;;
17173;SDS011;8702;48.130;-1.696;2023-02-13T00:22:29;12.17;;;10.87;;
17173;SDS011;8702;48.130;-1.696;2023-02-13T00:24:59;11.77;;;10.63;;
17173;SDS011;8702;48.130;-1.696;2023-02-13T00:27:28;10.63;;;9.63;;
17173;SDS011;8702;48.130;-1.696;2023-02-13T00:29:55;12.20;;;11.00;;
17173;SDS011;8702;48.130;-1.696;2023-02-13T00:32:22;12.73;;;11.47;;
17173;SDS011;8702;48.130;-1.696;2023-02-13T00:34:48;11.80;;;10.67;;
17173;SDS011;8702;48.130;-1.696;2023-02-13T00:37:15;11.20;;;10.10;;
17173;SDS011;8702;48.130;-1.696;2023-02-13T00:39:42;11.03;;;10.03;;
17173;SDS011;8702;48.130;-1.696;2023-02-13T00:42:09;12.00;;;10.83;;
17173;SDS011;8702;48.130;-1.696;2023-02-13T00:44:37;11.27;;;10.07;;
17173;SDS011;8702;48.130;-1.696;2023-02-13T00:47:04;11.97;;;10.67;;
17173;SDS011;8702;48.130;-1.696;2023-02-13T00:49:31;11.90;;;10.70;;
17173;SDS011;8702;48.130;-1.696;2023-02-13T00:51:58;10.80;;;9.80;;
17173;SDS011;8702;48.130;-1.696;2023-02-13T00:54:25;11.87;;;10.77;;
17173;SDS011;8702;48.130;-1.696;2023-02-13T00:56:52;11.33;;;10.20;;
17173;SDS011;8702;48.130;-1.696;2023-02-13T00:59:19;12.47;;;11.27;;
17173;SDS011;8702;48.130;-1.696;2023-02-13T01:01:47;12.43;;;11.23;;
17173;SDS011;8702;48.130;-1.696;2023-02-13T01:04:14;11.20;;;10.10;;
17173;SDS011;8702;48.130;-1.696;2023-02-13T01:06:41;11.20;;;10.10;;
17173;SDS011;8702;48.130;-1.696;2023-02-13T01:09:10;12.40;;;11.20;;
17173;SDS011;8702;48.130;-1.696;2023-02-13T01:11:38;12.40;;;11.10;;
17173;SDS011;8702;48.130;-1.696;2023-02-13T01:14:05;12.97;;;11.67;;
17173;SDS011;8702;48.130;-1.696;2023-02-13T01:16:32;12.53;;;11.03;;
17173;SDS011;8702;48.130;-1.696;2023-02-13T01:19:00;13.73;;;12.33;;
17173;SDS011;8702;48.130;-1.696;2023-02-13T01:21:27;14.20;;;12.70;;
17173;SDS011;8702;48.130;-1.696;2023-02-13T01:23:54;12.77;;;11.53;;
17173;SDS011;8702;48.130;-1.696;2023-02-13T01:26:22;12.23;;;11.07;;
17173;SDS011;8702;48.130;-1.696;2023-02-13T01:28:50;13.37;;;11.40;;
17173;SDS011;8702;48.130;-1.696;2023-02-13T01:31:18;13.40;;;11.50;;
17173;SDS011;8702;48.130;-1.696;2023-02-13T01:33:46;12.40;;;11.17;;
17173;SDS011;8702;48.130;-1.696;2023-02-13T01:36:15;10.93;;;9.93;;
17173;SDS011;8702;48.130;-1.696;2023-02-13T01:38:42;11.40;;;10.23;;
17173;SDS011;8702;48.130;-1.696;2023-02-13T01:41:09;12.73;;;10.93;;
17173;SDS011;8702;48.130;-1.696;2023-02-13T01:43:47;11.83;;;10.73;;
17173;SDS011;8702;48.130;-1.696;2023-02-13T01:46:20;13.30;;;12.00;;
17173;SDS011;8702;48.130;-1.696;2023-02-13T01:48:51;12.13;;;10.93;;
17173;SDS011;8702;48.130;-1.696;2023-02-13T01:51:22;12.13;;;10.87;;
17173;SDS011;8702;48.130;-1.696;2023-02-13T01:53:53;12.47;;;11.17;;
17173;SDS011;8702;48.130;-1.696;2023-02-13T01:56:23;12.30;;;11.10;;
17173;SDS011;8702;48.130;-1.696;2023-02-13T01:58:53;11.53;;;10.33;;
17173;SDS011;8702;48.130;-1.696;2023-02-13T02:01:22;11.97;;;10.80;;
17173;SDS011;8702;48.130;-1.696;2023-02-13T02:03:52;11.97;;;10.83;;
17173;SDS011;8702;48.130;-1.696;2023-02-13T02:06:27;12.03;;;10.73;;
17173;SDS011;8702;48.130;-1.696;2023-02-13T02:08:57;12.13;;;10.93;;
17173;SDS011;8702;48.130;-1.696;2023-02-13T02:11:29;12.87;;;11.67;;
17173;SDS011;8702;48.130;-1.696;2023-02-13T02:14:00;12.83;;;11.47;;
17173;SDS011;8702;48.130;-1.696;2023-02-13T02:16:28;11.90;;;10.80;;
17173;SDS011;8702;48.130;-1.696;2023-02-13T02:18:56;12.13;;;10.93;;
17173;SDS011;8702;48.130;-1.696;2023-02-13T02:21:35;12.27;;;10.97;;
17173;SDS011;8702;48.130;-1.696;2023-02-13T02:24:25;13.17;;;11.03;;
17173;SDS011;8702;48.130;-1.696;2023-02-13T02:27:14;12.50;;;10.80;;
17173;SDS011;8702;48.130;-1.696;2023-02-13T02:30:01;11.90;;;10.70;;
17173;SDS011;8702;48.130;-1.696;2023-02-13T02:32:55;12.43;;;11.23;;
17173;SDS011;8702;48.130;-1.696;2023-02-13T02:35:31;11.43;;;10.33;;
17173;SDS011;8702;48.130;-1.696;2023-02-13T02:38:09;13.03;;;11.77;;
17173;SDS011;8702;48.130;-1.696;2023-02-13T02:40:49;12.83;;;11.50;;
17173;SDS011;8702;48.130;-1.696;2023-02-13T02:43:29;13.00;;;11.70;;
17173;SDS011;8702;48.130;-1.696;2023-02-13T02:46:07;12.67;;;11.37;;
17173;SDS011;8702;48.130;-1.696;2023-02-13T02:48:45;12.37;;;10.83;;
17173;SDS011;8702;48.130;-1.696;2023-02-13T02:51:37;11.63;;;10.53;;
17173;SDS011;8702;48.130;-1.696;2023-02-13T02:54:09;12.17;;;11.07;;
17173;SDS011;8702;48.130;-1.696;2023-02-13T02:56:54;12.83;;;11.53;;
17173;SDS011;8702;48.130;-1.696;2023-02-13T02:59:25;11.77;;;10.67;;
17173;SDS011;8702;48.130;-1.696;2023-02-13T03:02:12;12.50;;;11.20;;
17173;SDS011;8702;48.130;-1.696;2023-02-13T03:05:00;11.23;;;10.23;;
17173;SDS011;8702;48.130;-1.696;2023-02-13T03:07:45;12.43;;;11.07;;
17173;SDS011;8702;48.130;-1.696;2023-02-13T03:10:14;11.47;;;10.37;;
17173;SDS011;8702;48.130;-1.696;2023-02-13T03:13:03;12.00;;;10.83;;
17173;SDS011;8702;48.130;-1.696;2023-02-13T03:15:46;11.33;;;10.10;;
17173;SDS011;8702;48.130;-1.696;2023-02-13T03:18:35;12.53;;;11.23;;
17173;SDS011;8702;48.130;-1.696;2023-02-13T03:21:24;12.33;;;11.13;;
17173;SDS011;8702;48.130;-1.696;2023-02-13T03:24:19;12.63;;;11.33;;
17173;SDS011;8702;48.130;-1.696;2023-02-13T03:26:51;12.20;;;10.90;;
17173;SDS011;8702;48.130;-1.696;2023-02-13T03:29:32;12.57;;;11.27;;
17173;SDS011;8702;48.130;-1.696;2023-02-13T03:32:27;13.63;;;12.23;;
17173;SDS011;8702;48.130;-1.696;2023-02-13T03:35:03;12.60;;;11.30;;
17173;SDS011;8702;48.130;-1.696;2023-02-13T03:38:04;15.30;;;11.47;;
17173;SDS011;8702;48.130;-1.696;2023-02-13T03:40:41;12.97;;;11.67;;
17173;SDS011;8702;48.130;-1.696;2023-02-13T03:43:26;12.53;;;11.23;;
17173;SDS011;8702;48.130;-1.696;2023-02-13T03:45:56;12.20;;;11.00;;
17173;SDS011;8702;48.130;-1.696;2023-02-13T03:48:26;12.07;;;10.87;;
17173;SDS011;8702;48.130;-1.696;2023-02-13T03:51:16;12.33;;;11.10;;
17173;SDS011;8702;48.130;-1.696;2023-02-13T03:53:49;12.53;;;11.27;;
17173;SDS011;8702;48.130;-1.696;2023-02-13T03:56:19;13.00;;;11.67;;
17173;SDS011;8702;48.130;-1.696;2023-02-13T03:59:04;12.33;;;11.23;;
17173;SDS011;8702;48.130;-1.696;2023-02-13T04:01:39;12.67;;;11.37;;
17173;SDS011;8702;48.130;-1.696;2023-02-13T04:04:10;11.77;;;10.67;;
17173;SDS011;8702;48.130;-1.696;2023-02-13T04:06:45;12.60;;;11.40;;
17173;SDS011;8702;48.130;-1.696;2023-02-13T04:09:17;11.57;;;10.37;;
17173;SDS011;8702;48.130;-1.696;2023-02-13T04:11:47;11.77;;;10.57;;
17173;SDS011;8702;48.130;-1.696;2023-02-13T04:14:19;11.70;;;10.60;;
17173;SDS011;8702;48.130;-1.696;2023-02-13T04:16:51;12.07;;;10.97;;
17173;SDS011;8702;48.130;-1.696;2023-02-13T04:19:22;11.60;;;10.50;;
17173;SDS011;8702;48.130;-1.696;2023-02-13T04:21:53;11.87;;;10.73;;
17173;SDS011;8702;48.130;-1.696;2023-02-13T04:24:23;12.17;;;10.97;;
17173;SDS011;8702;48.130;-1.696;2023-02-13T04:26:50;11.67;;;10.47;;
17173;SDS011;8702;48.130;-1.696;2023-02-13T04:29:19;11.80;;;10.60;;
17173;SDS011;8702;48.130;-1.696;2023-02-13T04:31:47;12.77;;;11.47;;
17173;SDS011;8702;48.130;-1.696;2023-02-13T04:34:13;12.03;;;10.93;;
17173;SDS011;8702;48.130;-1.696;2023-02-13T04:36:41;12.07;;;10.87;;
17173;SDS011;8702;48.130;-1.696;2023-02-13T04:39:08;13.37;;;11.97;;
17173;SDS011;8702;48.130;-1.696;2023-02-13T04:41:37;12.33;;;11.13;;
17173;SDS011;8702;48.130;-1.696;2023-02-13T04:44:04;12.60;;;11.30;;
17173;SDS011;8702;48.130;-1.696;2023-02-13T04:46:31;12.60;;;11.40;;
17173;SDS011;8702;48.130;-1.696;2023-02-13T04:48:58;12.97;;;11.63;;
17173;SDS011;8702;48.130;-1.696;2023-02-13T04:51:25;13.60;;;11.57;;
17173;SDS011;8702;48.130;-1.696;2023-02-13T04:53:52;13.30;;;11.90;;
17173;SDS011;8702;48.130;-1.696;2023-02-13T04:56:19;11.83;;;10.63;;
17173;SDS011;8702;48.130;-1.696;2023-02-13T04:58:47;12.97;;;11.67;;
17173;SDS011;8702;48.130;-1.696;2023-02-13T05:01:15;13.03;;;11.73;;
17173;SDS011;8702;48.130;-1.696;2023-02-13T05:03:42;13.00;;;11.70;;
17173;SDS011;8702;48.130;-1.696;2023-02-13T05:06:09;13.07;;;11.77;;
17173;SDS011;8702;48.130;-1.696;2023-02-13T05:08:36;12.27;;;10.97;;
17173;SDS011;8702;48.130;-1.696;2023-02-13T05:11:03;13.40;;;11.63;;
17173;SDS011;8702;48.130;-1.696;2023-02-13T05:13:30;12.60;;;11.30;;
17173;SDS011;8702;48.130;-1.696;2023-02-13T05:15:59;12.00;;;10.83;;
17173;SDS011;8702;48.130;-1.696;2023-02-13T05:18:26;12.70;;;11.40;;
17173;SDS011;8702;48.130;-1.696;2023-02-13T05:20:53;12.67;;;11.47;;
17173;SDS011;8702;48.130;-1.696;2023-02-13T05:23:37;12.53;;;11.23;;
17173;SDS011;8702;48.130;-1.696;2023-02-13T05:26:04;13.23;;;11.83;;
17173;SDS011;8702;48.130;-1.696;2023-02-13T05:28:31;13.13;;;11.53;;
17173;SDS011;8702;48.130;-1.696;2023-02-13T05:31:31;13.43;;;12.03;;
17173;SDS011;8702;48.130;-1.696;2023-02-13T05:33:58;13.13;;;11.83;;
17173;SDS011;8702;48.130;-1.696;2023-02-13T05:36:25;13.57;;;12.10;;
17173;SDS011;8702;48.130;-1.696;2023-02-13T05:38:54;12.97;;;11.57;;
17173;SDS011;8702;48.130;-1.696;2023-02-13T05:41:21;13.27;;;11.90;;
17173;SDS011;8702;48.130;-1.696;2023-02-13T05:43:47;13.27;;;11.87;;
17173;SDS011;8702;48.130;-1.696;2023-02-13T05:46:14;13.03;;;11.63;;
17173;SDS011;8702;48.130;-1.696;2023-02-13T05:48:43;12.97;;;11.63;;
17173;SDS011;8702;48.130;-1.696;2023-02-13T05:51:09;14.03;;;12.63;;
17173;SDS011;8702;48.130;-1.696;2023-02-13T05:53:36;13.37;;;12.00;;
17173;SDS011;8702;48.130;-1.696;2023-02-13T05:56:04;14.43;;;12.37;;
17173;SDS011;8702;48.130;-1.696;2023-02-13T05:58:32;16.77;;;12.20;;
17173;SDS011;8702;48.130;-1.696;2023-02-13T06:00:59;12.67;;;11.47;;
17173;SDS011;8702;48.130;-1.696;2023-02-13T06:03:27;13.03;;;11.83;;
17173;SDS011;8702;48.130;-1.696;2023-02-13T06:05:56;13.70;;;12.40;;
17173;SDS011;8702;48.130;-1.696;2023-02-13T06:08:24;15.77;;;12.93;;
17173;SDS011;8702;48.130;-1.696;2023-02-13T06:10:51;14.00;;;12.50;;
17173;SDS011;8702;48.130;-1.696;2023-02-13T06:13:18;14.40;;;12.57;;
17173;SDS011;8702;48.130;-1.696;2023-02-13T06:15:45;13.67;;;12.27;;
17173;SDS011;8702;48.130;-1.696;2023-02-13T06:18:12;14.20;;;12.70;;
17173;SDS011;8702;48.130;-1.696;2023-02-13T06:20:39;14.47;;;13.00;;
17173;SDS011;8702;48.130;-1.696;2023-02-13T06:23:07;15.73;;;13.57;;
17173;SDS011;8702;48.130;-1.696;2023-02-13T06:25:34;15.33;;;13.30;;
17173;SDS011;8702;48.130;-1.696;2023-02-13T06:28:03;15.47;;;13.80;;
17173;SDS011;8702;48.130;-1.696;2023-02-13T06:30:31;14.70;;;13.30;;
17173;SDS011;8702;48.130;-1.696;2023-02-13T06:33:00;15.10;;;13.23;;
17173;SDS011;8702;48.130;-1.696;2023-02-13T06:35:28;14.60;;;13.03;;
17173;SDS011;8702;48.130;-1.696;2023-02-13T06:37:56;16.13;;;14.43;;
17173;SDS011;8702;48.130;-1.696;2023-02-13T06:40:26;15.77;;;14.13;;
17173;SDS011;8702;48.130;-1.696;2023-02-13T06:42:54;16.37;;;13.77;;
17173;SDS011;8702;48.130;-1.696;2023-02-13T06:45:24;14.93;;;13.50;;
17173;SDS011;8702;48.130;-1.696;2023-02-13T06:47:53;15.70;;;14.10;;
17173;SDS011;8702;48.130;-1.696;2023-02-13T06:50:22;15.43;;;13.80;;
17173;SDS011;8702;48.130;-1.696;2023-02-13T06:52:50;16.37;;;14.23;;
17173;SDS011;8702;48.130;-1.696;2023-02-13T06:55:19;15.23;;;13.77;;
17173;SDS011;8702;48.130;-1.696;2023-02-13T06:57:48;15.40;;;13.90;;
17173;SDS011;8702;48.130;-1.696;2023-02-13T07:00:17;16.77;;;14.23;;
17173;SDS011;8702;48.130;-1.696;2023-02-13T07:02:46;15.93;;;14.23;;
17173;SDS011;8702;48.130;-1.696;2023-02-13T07:05:14;15.93;;;14.33;;
17173;SDS011;8702;48.130;-1.696;2023-02-13T07:07:42;16.20;;;14.50;;
17173;SDS011;8702;48.130;-1.696;2023-02-13T07:10:11;16.63;;;14.23;;
17173;SDS011;8702;48.130;-1.696;2023-02-13T07:12:40;18.10;;;15.13;;
17173;SDS011;8702;48.130;-1.696;2023-02-13T07:15:09;16.53;;;14.87;;
17173;SDS011;8702;48.130;-1.696;2023-02-13T07:17:36;16.07;;;14.50;;
17173;SDS011;8702;48.130;-1.696;2023-02-13T07:20:03;16.83;;;14.87;;
17173;SDS011;8702;48.130;-1.696;2023-02-13T07:22:31;17.47;;;15.47;;
17173;SDS011;8702;48.130;-1.696;2023-02-13T07:24:59;16.93;;;15.13;;
17173;SDS011;8702;48.130;-1.696;2023-02-13T07:27:26;17.07;;;15.27;;
17173;SDS011;8702;48.130;-1.696;2023-02-13T07:29:54;17.70;;;15.80;;
17173;SDS011;8702;48.130;-1.696;2023-02-13T07:32:23;16.33;;;14.73;;
17173;SDS011;8702;48.130;-1.696;2023-02-13T07:34:50;18.00;;;16.07;;
17173;SDS011;8702;48.130;-1.696;2023-02-13T07:37:17;18.07;;;15.47;;
17173;SDS011;8702;48.130;-1.696;2023-02-13T07:39:44;17.43;;;15.63;;
17173;SDS011;8702;48.130;-1.696;2023-02-13T07:42:10;17.67;;;15.87;;
17173;SDS011;8702;48.130;-1.696;2023-02-13T07:44:37;19.13;;;17.13;;
17173;SDS011;8702;48.130;-1.696;2023-02-13T07:47:04;19.57;;;17.33;;
17173;SDS011;8702;48.130;-1.696;2023-02-13T07:49:32;19.73;;;17.63;;
17173;SDS011;8702;48.130;-1.696;2023-02-13T07:52:01;19.70;;;17.60;;
17173;SDS011;8702;48.130;-1.696;2023-02-13T07:54:28;19.30;;;17.13;;
17173;SDS011;8702;48.130;-1.696;2023-02-13T07:56:56;20.20;;;18.07;;
17173;SDS011;8702;48.130;-1.696;2023-02-13T07:59:23;21.27;;;18.97;;
17173;SDS011;8702;48.130;-1.696;2023-02-13T08:01:51;20.63;;;18.07;;
17173;SDS011;8702;48.130;-1.696;2023-02-13T08:04:18;21.80;;;19.13;;
17173;SDS011;8702;48.130;-1.696;2023-02-13T08:06:47;22.80;;;17.73;;
17173;SDS011;8702;48.130;-1.696;2023-02-13T08:09:16;21.20;;;18.90;;
17173;SDS011;8702;48.130;-1.696;2023-02-13T08:12:03;20.83;;;18.50;;
17173;SDS011;8702;48.130;-1.696;2023-02-13T08:14:33;19.37;;;17.30;;
17173;SDS011;8702;48.130;-1.696;2023-02-13T08:17:01;20.53;;;18.07;;
17173;SDS011;8702;48.130;-1.696;2023-02-13T08:19:29;19.97;;;17.63;;
17173;SDS011;8702;48.130;-1.696;2023-02-13T08:21:59;21.40;;;18.00;;
17173;SDS011;8702;48.130;-1.696;2023-02-13T08:24:29;21.37;;;18.50;;
17173;SDS011;8702;48.130;-1.696;2023-02-13T08:26:59;20.63;;;18.50;;
17173;SDS011;8702;48.130;-1.696;2023-02-13T08:29:30;19.97;;;17.97;;
17173;SDS011;8702;48.130;-1.696;2023-02-13T08:32:00;19.87;;;17.53;;
17173;SDS011;8702;48.130;-1.696;2023-02-13T08:34:31;19.80;;;17.73;;
17173;SDS011;8702;48.130;-1.696;2023-02-13T08:37:02;19.47;;;17.47;;
17173;SDS011;8702;48.130;-1.696;2023-02-13T08:39:31;19.23;;;17.33;;
17173;SDS011;8702;48.130;-1.696;2023-02-13T08:42:01;21.10;;;18.90;;
17173;SDS011;8702;48.130;-1.696;2023-02-13T08:44:28;20.30;;;17.93;;
17173;SDS011;8702;48.130;-1.696;2023-02-13T08:46:56;19.40;;;17.37;;
17173;SDS011;8702;48.130;-1.696;2023-02-13T08:49:25;20.70;;;18.60;;
17173;SDS011;8702;48.130;-1.696;2023-02-13T08:51:52;18.90;;;17.00;;
17173;SDS011;8702;48.130;-1.696;2023-02-13T08:54:20;22.50;;;19.03;;
17173;SDS011;8702;48.130;-1.696;2023-02-13T08:56:48;21.20;;;19.07;;
17173;SDS011;8702;48.130;-1.696;2023-02-13T08:59:15;20.50;;;18.30;;
17173;SDS011;8702;48.130;-1.696;2023-02-13T09:01:42;20.80;;;18.60;;
17173;SDS011;8702;48.130;-1.696;2023-02-13T09:04:09;20.37;;;18.17;;
17173;SDS011;8702;48.130;-1.696;2023-02-13T09:06:39;20.87;;;18.77;;
17173;SDS011;8702;48.130;-1.696;2023-02-13T09:09:07;25.30;;;18.87;;
17173;SDS011;8702;48.130;-1.696;2023-02-13T09:11:35;20.63;;;18.53;;
17173;SDS011;8702;48.130;-1.696;2023-02-13T09:14:03;20.47;;;18.23;;
17173;SDS011;8702;48.130;-1.696;2023-02-13T09:16:30;21.70;;;18.90;;
17173;SDS011;8702;48.130;-1.696;2023-02-13T09:18:57;21.53;;;19.33;;
17173;SDS011;8702;48.130;-1.696;2023-02-13T09:21:24;20.27;;;18.07;;
17173;SDS011;8702;48.130;-1.696;2023-02-13T09:23:51;21.93;;;19.63;;
17173;SDS011;8702;48.130;-1.696;2023-02-13T09:26:19;22.27;;;19.87;;
17173;SDS011;8702;48.130;-1.696;2023-02-13T09:28:48;22.13;;;19.87;;
17173;SDS011;8702;48.130;-1.696;2023-02-13T09:31:16;21.93;;;19.73;;
17173;SDS011;8702;48.130;-1.696;2023-02-13T09:33:44;21.97;;;19.87;;
17173;SDS011;8702;48.130;-1.696;2023-02-13T09:36:12;21.27;;;19.20;;
17173;SDS011;8702;48.130;-1.696;2023-02-13T09:38:40;22.80;;;20.50;;
17173;SDS011;8702;48.130;-1.696;2023-02-13T09:41:08;22.87;;;20.40;;
17173;SDS011;8702;48.130;-1.696;2023-02-13T09:43:40;22.33;;;19.90;;
17173;SDS011;8702;48.130;-1.696;2023-02-13T09:46:11;22.13;;;19.83;;
17173;SDS011;8702;48.130;-1.696;2023-02-13T09:48:39;21.97;;;19.67;;
17173;SDS011;8702;48.130;-1.696;2023-02-13T09:51:09;21.80;;;19.60;;
17173;SDS011;8702;48.130;-1.696;2023-02-13T09:53:39;21.43;;;19.23;;
17173;SDS011;8702;48.130;-1.696;2023-02-13T09:56:09;22.97;;;20.63;;
17173;SDS011;8702;48.130;-1.696;2023-02-13T09:58:40;21.60;;;19.23;;
17173;SDS011;8702;48.130;-1.696;2023-02-13T10:01:20;21.20;;;19.03;;
17173;SDS011;8702;48.130;-1.696;2023-02-13T10:04:06;20.63;;;18.67;;
17173;SDS011;8702;48.130;-1.696;2023-02-13T10:06:41;22.10;;;19.80;;
17173;SDS011;8702;48.130;-1.696;2023-02-13T10:09:16;21.97;;;19.87;;
17173;SDS011;8702;48.130;-1.696;2023-02-13T10:11:58;23.10;;;20.57;;
17173;SDS011;8702;48.130;-1.696;2023-02-13T10:14:32;23.07;;;20.77;;
17173;SDS011;8702;48.130;-1.696;2023-02-13T10:17:05;22.93;;;20.47;;
17173;SDS011;8702;48.130;-1.696;2023-02-13T10:19:39;22.53;;;20.00;;
17173;SDS011;8702;48.130;-1.696;2023-02-13T10:22:09;22.10;;;19.97;;
17173;SDS011;8702;48.130;-1.696;2023-02-13T10:24:41;21.43;;;19.43;;
17173;SDS011;8702;48.130;-1.696;2023-02-13T10:27:16;23.43;;;21.03;;
17173;SDS011;8702;48.130;-1.696;2023-02-13T10:29:44;23.03;;;20.63;;
17173;SDS011;8702;48.130;-1.696;2023-02-13T10:32:43;22.83;;;20.60;;
17173;SDS011;8702;48.130;-1.696;2023-02-13T10:35:20;23.40;;;20.83;;
17173;SDS011;8702;48.130;-1.696;2023-02-13T10:37:47;24.90;;;20.50;;
17173;SDS011;8702;48.130;-1.696;2023-02-13T10:40:16;23.00;;;20.57;;
17173;SDS011;8702;48.130;-1.696;2023-02-13T10:42:44;23.70;;;21.20;;
17173;SDS011;8702;48.130;-1.696;2023-02-13T10:45:20;23.70;;;21.17;;
17173;SDS011;8702;48.130;-1.696;2023-02-13T10:47:59;22.77;;;20.37;;
17173;SDS011;8702;48.130;-1.696;2023-02-13T10:50:33;23.40;;;21.17;;
17173;SDS011;8702;48.130;-1.696;2023-02-13T10:53:10;23.77;;;21.33;;
17173;SDS011;8702;48.130;-1.696;2023-02-13T10:58:27;27.27;;;21.93;;
17173;SDS011;8702;48.130;-1.696;2023-02-13T11:00:58;24.23;;;20.40;;
17173;SDS011;8702;48.130;-1.696;2023-02-13T11:03:30;23.43;;;21.13;;
17173;SDS011;8702;48.130;-1.696;2023-02-13T11:05:57;25.37;;;21.83;;
17173;SDS011;8702;48.130;-1.696;2023-02-13T11:08:27;22.90;;;20.50;;
17173;SDS011;8702;48.130;-1.696;2023-02-13T11:10:56;23.30;;;20.90;;
17173;SDS011;8702;48.130;-1.696;2023-02-13T11:13:24;25.07;;;22.00;;
17173;SDS011;8702;48.130;-1.696;2023-02-13T11:15:58;26.00;;;21.67;;
17173;SDS011;8702;48.130;-1.696;2023-02-13T11:18:26;24.53;;;21.93;;
17173;SDS011;8702;48.130;-1.696;2023-02-13T11:20:59;23.97;;;21.60;;
17173;SDS011;8702;48.130;-1.696;2023-02-13T11:23:36;23.77;;;21.37;;
17173;SDS011;8702;48.130;-1.696;2023-02-13T11:26:04;24.40;;;21.43;;
17173;SDS011;8702;48.130;-1.696;2023-02-13T11:28:34;24.43;;;20.93;;
17173;SDS011;8702;48.130;-1.696;2023-02-13T11:31:09;23.47;;;21.00;;
17173;SDS011;8702;48.130;-1.696;2023-02-13T11:33:37;23.63;;;21.10;;
17173;SDS011;8702;48.130;-1.696;2023-02-13T11:36:06;22.13;;;19.83;;
17173;SDS011;8702;48.130;-1.696;2023-02-13T11:38:34;22.97;;;20.40;;
17173;SDS011;8702;48.130;-1.696;2023-02-13T11:41:08;22.37;;;19.97;;
17173;SDS011;8702;48.130;-1.696;2023-02-13T11:43:36;23.27;;;20.87;;
17173;SDS011;8702;48.130;-1.696;2023-02-13T11:46:11;20.23;;;18.23;;
17173;SDS011;8702;48.130;-1.696;2023-02-13T11:48:40;23.70;;;21.23;;
17173;SDS011;8702;48.130;-1.696;2023-02-13T11:51:10;24.20;;;21.70;;
17173;SDS011;8702;48.130;-1.696;2023-02-13T11:53:37;21.83;;;19.63;;
17173;SDS011;8702;48.130;-1.696;2023-02-13T11:56:07;22.47;;;19.50;;
17173;SDS011;8702;48.130;-1.696;2023-02-13T11:58:34;21.50;;;19.37;;
17173;SDS011;8702;48.130;-1.696;2023-02-13T12:01:09;21.37;;;19.17;;
17173;SDS011;8702;48.130;-1.696;2023-02-13T12:03:39;23.80;;;21.10;;
17173;SDS011;8702;48.130;-1.696;2023-02-13T12:06:11;22.20;;;19.90;;
17173;SDS011;8702;48.130;-1.696;2023-02-13T12:08:40;21.10;;;18.90;;
17173;SDS011;8702;48.130;-1.696;2023-02-13T12:11:12;22.30;;;18.80;;
17173;SDS011;8702;48.130;-1.696;2023-02-13T12:13:42;20.03;;;18.03;;
17173;SDS011;8702;48.130;-1.696;2023-02-13T12:16:13;21.20;;;19.00;;
17173;SDS011;8702;48.130;-1.696;2023-02-13T12:18:45;21.47;;;19.27;;
17173;SDS011;8702;48.130;-1.696;2023-02-13T12:21:18;22.23;;;19.27;;
17173;SDS011;8702;48.130;-1.696;2023-02-13T12:23:52;21.73;;;19.37;;
17173;SDS011;8702;48.130;-1.696;2023-02-13T12:26:22;20.33;;;17.07;;
17173;SDS011;8702;48.130;-1.696;2023-02-13T12:28:59;18.67;;;16.87;;
17173;SDS011;8702;48.130;-1.696;2023-02-13T12:31:43;18.77;;;16.77;;
17173;SDS011;8702;48.130;-1.696;2023-02-13T12:37:07;19.17;;;17.20;;
17173;SDS011;8702;48.130;-1.696;2023-02-13T12:39:39;20.83;;;17.57;;
17173;SDS011;8702;48.130;-1.696;2023-02-13T12:42:12;19.50;;;17.60;;
17173;SDS011;8702;48.130;-1.696;2023-02-13T12:44:54;20.10;;;17.47;;
17173;SDS011;8702;48.130;-1.696;2023-02-13T12:47:25;19.70;;;17.67;;
17173;SDS011;8702;48.130;-1.696;2023-02-13T12:52:45;16.93;;;15.33;;
17173;SDS011;8702;48.130;-1.696;2023-02-13T12:55:18;17.10;;;15.10;;
17173;SDS011;8702;48.130;-1.696;2023-02-13T12:57:57;17.80;;;15.87;;
17173;SDS011;8702;48.130;-1.696;2023-02-13T13:00:33;21.13;;;16.17;;
17173;SDS011;8702;48.130;-1.696;2023-02-13T13:05:55;18.57;;;16.73;;
17173;SDS011;8702;48.130;-1.696;2023-02-13T13:08:30;17.10;;;15.23;;
17173;SDS011;8702;48.130;-1.696;2023-02-13T13:11:05;17.60;;;15.73;;
17173;SDS011;8702;48.130;-1.696;2023-02-13T13:13:39;16.90;;;15.10;;
17173;SDS011;8702;48.130;-1.696;2023-02-13T13:16:22;16.23;;;14.53;;
17173;SDS011;8702;48.130;-1.696;2023-02-13T13:18:59;18.47;;;16.47;;
17173;SDS011;8702;48.130;-1.696;2023-02-13T13:21:40;16.77;;;15.17;;
17173;SDS011;8702;48.130;-1.696;2023-02-13T13:24:20;17.20;;;15.03;;
17173;SDS011;8702;48.130;-1.696;2023-02-13T13:26:54;17.33;;;15.37;;
17173;SDS011;8702;48.130;-1.696;2023-02-13T13:29:23;18.07;;;15.03;;
17173;SDS011;8702;48.130;-1.696;2023-02-13T13:32:08;17.73;;;14.90;;
17173;SDS011;8702;48.130;-1.696;2023-02-13T13:34:39;17.73;;;14.70;;
17173;SDS011;8702;48.130;-1.696;2023-02-13T13:37:08;19.17;;;15.83;;
17173;SDS011;8702;48.130;-1.696;2023-02-13T13:39:42;16.27;;;14.57;;
17173;SDS011;8702;48.130;-1.696;2023-02-13T13:42:13;17.33;;;15.00;;
17173;SDS011;8702;48.130;-1.696;2023-02-13T13:44:58;16.83;;;13.73;;
17173;SDS011;8702;48.130;-1.696;2023-02-13T13:50:22;19.57;;;15.33;;
17173;SDS011;8702;48.130;-1.696;2023-02-13T13:58:35;20.23;;;14.77;;
17173;SDS011;8702;48.130;-1.696;2023-02-13T14:01:26;17.97;;;13.77;;
17173;SDS011;8702;48.130;-1.696;2023-02-13T14:03:56;18.37;;;13.97;;
17173;SDS011;8702;48.130;-1.696;2023-02-13T14:06:25;18.77;;;13.93;;
17173;SDS011;8702;48.130;-1.696;2023-02-13T14:09:00;15.90;;;14.20;;
17173;SDS011;8702;48.130;-1.696;2023-02-13T14:11:54;15.73;;;13.67;;
17173;SDS011;8702;48.130;-1.696;2023-02-13T14:17:13;15.67;;;14.07;;
17173;SDS011;8702;48.130;-1.696;2023-02-13T14:19:42;15.40;;;13.80;;
17173;SDS011;8702;48.130;-1.696;2023-02-13T14:25:00;16.17;;;14.47;;
17173;SDS011;8702;48.130;-1.696;2023-02-13T14:27:31;16.13;;;14.10;;
17173;SDS011;8702;48.130;-1.696;2023-02-13T14:30:01;17.53;;;13.57;;
17173;SDS011;8702;48.130;-1.696;2023-02-13T14:32:31;15.20;;;13.60;;
17173;SDS011;8702;48.130;-1.696;2023-02-13T14:35:01;16.90;;;15.10;;
17173;SDS011;8702;48.130;-1.696;2023-02-13T14:37:32;15.47;;;13.90;;
17173;SDS011;8702;48.130;-1.696;2023-02-13T14:40:08;15.47;;;13.97;;
17173;SDS011;8702;48.130;-1.696;2023-02-13T14:42:58;16.90;;;15.10;;
17173;SDS011;8702;48.130;-1.696;2023-02-13T14:45:45;16.27;;;14.20;;
17173;SDS011;8702;48.130;-1.696;2023-02-13T14:48:14;17.30;;;14.00;;
17173;SDS011;8702;48.130;-1.696;2023-02-13T14:50:45;17.27;;;14.97;;
17173;SDS011;8702;48.130;-1.696;2023-02-13T14:53:16;21.20;;;14.20;;
17173;SDS011;8702;48.130;-1.696;2023-02-13T14:55:47;15.93;;;13.20;;
17173;SDS011;8702;48.130;-1.696;2023-02-13T14:58:21;15.03;;;13.53;;
17173;SDS011;8702;48.130;-1.696;2023-02-13T15:00:52;16.63;;;14.93;;
17173;SDS011;8702;48.130;-1.696;2023-02-13T15:03:24;16.00;;;14.33;;
17173;SDS011;8702;48.130;-1.696;2023-02-13T15:05:55;16.30;;;14.57;;
17173;SDS011;8702;48.130;-1.696;2023-02-13T15:08:26;15.40;;;13.80;;
17173;SDS011;8702;48.130;-1.696;2023-02-13T15:10:57;15.33;;;13.70;;